Time;durP1;ratioP1;P1;durP2;ratioP2;P2;SDS_P1;SDS_P2;PMS_P1;PMS_P2;Temp;Humidity;BMP_temperature;BMP_pressure;BME280_temperature;BME280_humidity;BME280_pressure;Samples;Min_cycle;Max_cycle;Signal;HPM_P1;HPM_P2
2022/04/05 06:25:33;;;;;;;;;3.00;2.25;;;;;17.47;49.01;101046.63;5073176;27;45844;-71
2022/04/05 06:28:02;;;;;;;;;4.00;2.50;;;;;17.60;49.38;101051.88;5067137;27;48576;-71
2022/04/05 06:30:27;;;;;;;;;3.75;3.00;;;;;17.77;49.36;101042.47;5065487;27;46353;-71
2022/04/05 06:33:10;;;;;;;;;2.25;1.75;;;;;18.09;49.01;101051.63;5062819;27;45571;-71
2022/04/05 06:35:43;;;;;;;;;4.50;3.00;;;;;18.40;48.64;101052.66;5062942;28;45454;-71
2022/04/05 06:38:09;;;;;;;;;4.00;2.25;;;;;18.72;48.46;101056.34;5062720;27;45688;-71
2022/04/05 06:40:35;;;;;;;;;4.00;4.00;;;;;19.02;48.29;101057.44;5065276;27;45803;-73
2022/04/05 06:43:00;;;;;;;;;4.00;1.00;;;;;19.31;48.03;101056.81;5067224;27;45633;-71
2022/04/05 06:45:26;;;;;;;;;3.33;3.33;;;;;19.61;47.07;101065.88;5079219;27;45981;-73
2022/04/05 06:47:52;;;;;;;;;3.00;3.00;;;;;19.91;46.57;101062.44;5066495;27;45690;-71
2022/04/05 06:50:24;;;;;;;;;1.00;1.00;;;;;20.17;46.08;101064.69;5068670;27;47032;-73
2022/04/05 06:52:51;;;;;;;;;4.00;4.00;;;;;20.43;45.78;101059.63;5073968;27;45485;-72
2022/04/05 06:55:16;;;;;;;;;2.67;2.67;;;;;20.65;45.63;101063.88;5067309;27;46450;-71
2022/04/05 06:57:42;;;;;;;;;5.00;3.00;;;;;20.88;45.26;101065.50;5067462;27;45528;-71
2022/04/05 07:00:09;;;;;;;;;2.67;2.67;;;;;21.08;45.05;101066.31;5066167;28;45422;-72
2022/04/05 07:02:36;;;;;;;;;2.33;2.33;;;;;21.25;44.09;101059.31;5068822;27;45466;-73
2022/04/05 07:05:01;;;;;;;;;3.33;3.33;;;;;21.44;44.22;101057.56;5064114;27;45475;-73
2022/04/05 07:07:27;;;;;;;;;5.33;2.33;;;;;21.55;43.40;101053.84;5066274;27;45580;-73
2022/04/05 07:09:52;;;;;;;;;3.00;3.00;;;;;21.69;43.52;101053.38;5071907;27;48341;-73
2022/04/05 07:12:17;;;;;;;;;4.00;2.00;;;;;21.82;43.59;101057.59;5062844;27;45441;-74
2022/04/05 07:14:43;;;;;;;;;3.67;3.00;;;;;21.94;42.83;101053.69;5065277;27;45545;-74
2022/04/05 07:17:08;;;;;;;;;6.33;2.33;;;;;22.07;42.91;101044.41;5064859;27;45505;-71
2022/04/05 07:19:33;;;;;;;;;3.00;2.33;;;;;22.16;42.48;101056.16;5066497;28;45429;-74
2022/04/05 07:21:59;;;;;;;;;2.00;2.00;;;;;22.23;42.51;101049.97;5071402;27;45443;-74
2022/04/05 07:24:26;;;;;;;;;3.67;3.00;;;;;22.30;41.74;101043.94;5067188;27;46038;-74
2022/04/05 07:26:52;;;;;;;;;4.33;3.67;;;;;22.37;41.52;101051.28;5070292;27;45383;-74
2022/04/05 07:29:17;;;;;;;;;5.33;4.00;;;;;22.43;41.27;101041.72;5071322;27;45554;-74
2022/04/05 07:31:43;;;;;;;;;2.00;2.00;;;;;22.47;41.73;101043.13;5065716;27;45588;-74
2022/04/05 07:34:08;;;;;;;;;4.00;2.00;;;;;22.50;41.31;101042.81;5067535;27;46257;-74
2022/04/05 07:36:33;;;;;;;;;6.00;3.00;;;;;22.56;40.81;101041.38;5053042;27;45575;-74
2022/04/05 07:38:59;;;;;;;;;2.67;2.67;;;;;22.57;40.97;101042.22;5053773;28;46036;-74
2022/04/05 07:41:25;;;;;;;;;2.00;2.00;;;;;22.64;40.72;101056.81;5055477;28;45406;-72
2022/04/05 07:43:50;;;;;;;;;1.00;1.00;;;;;22.68;40.39;101050.09;5055222;28;46076;-74
2022/04/05 07:46:16;;;;;;;;;3.67;2.00;;;;;22.72;40.82;101042.53;5051458;28;47330;-74
2022/04/05 07:48:41;;;;;;;;;1.67;1.67;;;;;22.74;40.12;101052.19;5051680;28;45406;-73
2022/04/05 07:51:07;;;;;;;;;3.00;1.00;;;;;22.79;40.02;101051.72;5059096;28;45367;-71
2022/04/05 07:53:33;;;;;;;;;1.67;1.67;;;;;22.82;40.75;101047.84;5055960;28;46197;-72
2022/04/05 07:55:58;;;;;;;;;2.67;2.67;;;;;22.85;40.48;101050.25;5047586;28;45529;-73
2022/04/05 07:58:25;;;;;;;;;4.33;3.00;;;;;22.89;40.35;101046.22;5056522;27;45588;-73
2022/04/05 08:00:51;;;;;;;;;2.67;1.33;;;;;22.93;39.95;101046.75;5053119;28;45497;-72
2022/04/05 08:03:17;;;;;;;;;2.00;2.00;;;;;22.96;40.17;101043.72;5052773;28;46171;-73
2022/04/05 08:05:43;;;;;;;;;6.33;4.00;;;;;22.98;40.30;101041.72;5055819;28;45500;-73
2022/04/05 08:08:08;;;;;;;;;1.33;1.33;;;;;23.06;40.65;101039.06;5053814;28;51863;-72
2022/04/05 08:10:34;;;;;;;;;3.33;2.67;;;;;23.11;40.23;101035.88;5053078;28;45722;-72
2022/04/05 08:13:00;;;;;;;;;2.00;2.00;;;;;23.12;39.96;101043.84;5045750;28;46183;-71
2022/04/05 08:15:26;;;;;;;;;2.00;2.00;;;;;23.17;40.00;101040.66;5050097;28;45434;-72
2022/04/05 08:17:52;;;;;;;;;5.67;3.00;;;;;23.18;40.48;101034.25;5053633;28;45790;-72
2022/04/05 08:20:19;;;;;;;;;1.33;1.33;;;;;23.24;39.88;101039.03;5070362;27;45960;-72
2022/04/05 08:22:45;;;;;;;;;2.00;1.00;;;;;23.26;39.94;101034.28;5051838;28;46016;-73
2022/04/05 08:25:14;;;;;;;;;2.00;2.00;;;;;23.27;40.08;101045.97;5051526;28;45544;-72
2022/04/05 08:27:40;;;;;;;;;2.00;2.00;;;;;23.29;40.22;101033.13;5064428;27;45798;-73
2022/04/05 08:30:08;;;;;;;;;1.00;1.00;;;;;23.31;40.36;101041.94;5048735;27;45572;-71
2022/04/05 08:32:36;;;;;;;;;2.00;1.00;;;;;23.33;40.33;101041.81;5090721;27;48395;-73
2022/04/05 08:35:03;;;;;;;;;1.00;1.00;;;;;23.32;40.31;101040.94;5055217;28;45712;-72
2022/04/05 08:37:28;;;;;;;;;2.00;2.00;;;;;23.31;40.05;101050.06;5053945;28;45544;-74
2022/04/05 08:39:55;;;;;;;;;2.00;2.00;;;;;23.39;40.41;101052.00;5049083;28;45484;-72
2022/04/05 08:42:21;;;;;;;;;3.00;2.00;;;;;23.41;40.43;101055.38;5040999;28;45932;-73
2022/04/05 08:44:49;;;;;;;;;3.00;1.33;;;;;23.41;40.37;101053.53;5070316;28;45459;-72
2022/04/05 08:47:21;;;;;;;;;3.67;2.67;;;;;23.45;40.42;101058.66;5055810;28;45743;-71
2022/04/05 08:49:49;;;;;;;;;2.00;2.00;;;;;23.45;40.53;101055.94;5052133;28;45494;-73
2022/04/05 08:52:14;;;;;;;;;1.00;1.00;;;;;23.46;40.67;101061.19;5055869;28;45394;-73
2022/04/05 08:54:39;;;;;;;;;2.33;1.67;;;;;23.50;40.65;101065.28;5040580;28;45474;-73
2022/04/05 08:57:05;;;;;;;;;1.67;1.67;;;;;23.54;40.69;101068.53;5043613;28;45237;-74
2022/04/05 08:59:31;;;;;;;;;3.33;2.00;;;;;23.55;40.66;101064.81;5059730;28;45579;-72
2022/04/05 09:01:56;;;;;;;;;2.00;2.00;;;;;23.57;40.83;101062.78;5052226;27;45911;-72
2022/04/05 09:04:21;;;;;;;;;2.00;2.00;;;;;23.59;40.49;101057.19;5053685;28;48429;-72
2022/04/05 09:06:47;;;;;;;;;1.00;1.00;;;;;23.59;40.56;101054.47;5057524;28;45328;-72
2022/04/05 09:09:16;;;;;;;;;1.00;1.00;;;;;23.61;40.55;101050.59;5054470;28;45257;-72
2022/04/05 09:11:47;;;;;;;;;2.00;2.00;;;;;23.62;40.91;101054.16;5061941;28;46092;-74
2022/04/05 09:14:13;;;;;;;;;1.00;1.00;;;;;23.61;40.36;101045.19;5055502;28;45557;-72
2022/04/05 09:16:39;;;;;;;;;1.00;1.00;;;;;23.65;40.44;101051.97;5048102;28;46535;-73
2022/04/05 09:19:12;;;;;;;;;2.00;2.00;;;;;23.67;40.70;101066.19;5045575;28;45538;-72
2022/04/05 09:21:57;;;;;;;;;2.00;2.00;;;;;23.68;40.81;101054.38;5052100;28;46312;-72
2022/04/05 09:24:32;;;;;;;;;2.00;2.00;;;;;23.68;40.80;101058.94;5059955;28;45470;-73
2022/04/05 09:26:58;;;;;;;;;2.33;1.00;;;;;23.68;40.70;101054.38;5054868;28;47882;-72
2022/04/05 09:29:47;;;;;;;;;1.00;1.00;;;;;23.69;40.54;101053.34;5066488;28;45358;-72
2022/04/05 09:32:37;;;;;;;;;0.67;0.67;;;;;23.69;40.82;101056.06;5043423;28;47051;-73
2022/04/05 09:35:05;;;;;;;;;2.00;2.00;;;;;23.67;40.96;101043.69;5054682;27;45552;-72
2022/04/05 09:37:36;;;;;;;;;2.00;2.00;;;;;23.73;40.88;101055.72;5057623;28;45573;-71
2022/04/05 09:40:17;;;;;;;;;1.00;1.00;;;;;23.73;41.08;101053.00;5054367;28;45616;-73
2022/04/05 09:43:08;;;;;;;;;1.00;1.00;;;;;23.73;40.55;101055.72;5055406;28;46040;-74
2022/04/05 09:45:45;;;;;;;;;2.00;2.00;;;;;23.73;41.18;101047.59;5057222;28;45579;-73
2022/04/05 09:48:12;;;;;;;;;1.00;1.00;;;;;23.72;41.03;101051.31;5062471;28;45537;-72
2022/04/05 09:51:01;;;;;;;;;1.33;1.33;;;;;23.71;40.89;101055.06;5057673;28;45986;-72
2022/04/05 09:53:28;;;;;;;;;3.00;3.00;;;;;23.72;40.98;101060.31;5058328;28;45819;-73
2022/04/05 09:56:05;;;;;;;;;1.33;1.00;;;;;23.72;40.74;101064.88;5053328;27;45553;-71
2022/04/05 09:58:30;;;;;;;;;1.00;1.00;;;;;23.67;41.08;101059.94;5049417;28;45465;-73
2022/04/05 10:01:08;;;;;;;;;1.00;1.00;;;;;23.74;41.18;101062.88;5056406;28;45385;-71
2022/04/05 10:03:35;;;;;;;;;1.00;1.00;;;;;23.74;41.16;101069.13;5039280;28;45941;-71
2022/04/05 10:06:02;;;;;;;;;4.00;2.00;;;;;23.74;39.94;101061.00;5050733;28;45564;-72
2022/04/05 10:08:30;;;;;;;;;4.67;3.33;;;;;23.67;39.65;101054.53;5043717;28;45362;-71
2022/04/05 10:10:55;;;;;;;;;2.00;2.00;;;;;23.63;39.14;101062.13;5048349;28;45391;-72
2022/04/05 10:13:21;;;;;;;;;2.00;2.00;;;;;23.58;39.46;101058.22;5051803;28;47110;-73
2022/04/05 10:15:47;;;;;;;;;3.00;2.00;;;;;23.53;39.09;101056.84;5052387;28;45503;-74
2022/04/05 10:18:15;;;;;;;;;4.33;3.33;;;;;23.49;39.15;101046.47;5053175;28;45809;-72
2022/04/05 10:20:41;;;;;;;;;5.67;4.67;;;;;23.45;38.52;101053.22;5051245;28;45541;-72
2022/04/05 10:23:07;;;;;;;;;2.00;2.00;;;;;23.38;38.85;101053.84;5051260;27;45666;-72
2022/04/05 10:25:34;;;;;;;;;3.00;3.00;;;;;23.36;38.83;101052.31;5046937;28;45591;-71
2022/04/05 10:28:00;;;;;;;;;5.67;3.67;;;;;23.19;38.35;101032.38;5045078;28;45600;-73
2022/04/05 10:30:32;;;;;;;;;2.33;2.33;;;;;23.23;38.73;101044.59;5051072;28;45506;-74
2022/04/05 10:33:07;;;;;;;;;6.00;3.67;;;;;23.22;38.49;101048.31;5053741;28;45504;-71
2022/04/05 10:35:41;;;;;;;;;2.67;2.67;;;;;23.19;38.37;101045.91;5063123;28;45397;-73
2022/04/05 10:38:13;;;;;;;;;3.67;3.33;;;;;23.13;38.55;101044.72;5054254;28;45334;-73
2022/04/05 10:40:39;;;;;;;;;3.33;3.33;;;;;23.14;38.64;101043.69;5053338;28;45781;-73
2022/04/05 10:43:16;;;;;;;;;3.00;2.00;;;;;23.12;38.39;101045.69;5057420;27;45501;-74
2022/04/05 10:45:43;;;;;;;;;3.67;3.33;;;;;23.10;38.10;101048.56;5055646;28;45651;-74
2022/04/05 10:48:16;;;;;;;;;1.33;1.33;;;;;23.08;38.18;101053.28;5053122;27;45518;-73
2022/04/05 10:50:43;;;;;;;;;2.33;2.33;;;;;23.09;38.46;101046.88;5041930;28;45760;-72
2022/04/05 10:53:20;;;;;;;;;2.00;2.00;;;;;23.13;38.66;101050.97;5041057;28;45931;-72
2022/04/05 10:56:04;;;;;;;;;2.00;2.00;;;;;23.16;38.60;101039.81;5049763;28;45536;-72
2022/04/05 10:58:34;;;;;;;;;2.00;2.00;;;;;23.20;38.80;101048.47;5053905;28;50002;-72
2022/04/05 11:01:12;;;;;;;;;3.00;3.00;;;;;23.23;38.62;101048.16;5061197;28;45494;-71
2022/04/05 11:03:37;;;;;;;;;3.00;2.00;;;;;23.26;38.85;101045.13;5053011;28;46214;-71
2022/04/05 11:06:03;;;;;;;;;2.33;2.33;;;;;23.29;38.71;101055.63;5035356;28;45342;-73
2022/04/05 11:08:31;;;;;;;;;4.00;4.00;;;;;23.21;38.88;101025.78;5057876;28;45773;-71
2022/04/05 11:11:00;;;;;;;;;2.00;2.00;;;;;23.35;38.94;101028.97;5055703;28;45431;-73
2022/04/05 11:13:38;;;;;;;;;2.00;2.00;;;;;23.37;38.63;101027.78;5055593;28;45539;-74
2022/04/05 11:16:09;;;;;;;;;3.33;3.33;;;;;23.36;38.86;101026.09;5055212;28;45504;-73
2022/04/05 11:18:36;;;;;;;;;8.33;5.00;;;;;23.36;38.42;101015.25;5043895;28;45671;-74
2022/04/05 11:21:06;;;;;;;;;6.33;4.67;;;;;23.35;38.59;101015.41;5039531;28;45427;-73
2022/04/05 11:23:42;;;;;;;;;4.00;4.00;;;;;23.32;38.37;101012.97;5054648;28;47292;-74
2022/04/05 11:26:26;;;;;;;;;3.00;3.00;;;;;23.29;38.25;101011.44;5054828;28;45881;-74
2022/04/05 11:28:52;;;;;;;;;4.00;3.33;;;;;23.27;38.66;101019.75;5057949;28;45383;-74
2022/04/05 11:31:37;;;;;;;;;5.00;4.00;;;;;23.26;38.38;101031.56;5058446;28;46570;-71
2022/04/05 11:34:34;;;;;;;;;5.67;4.67;;;;;23.26;38.67;101028.03;5047564;28;47116;-71
2022/04/05 11:37:00;;;;;;;;;4.33;4.00;;;;;23.24;38.45;101033.59;5049507;28;46670;-71
2022/04/05 11:39:25;;;;;;;;;5.00;3.00;;;;;23.23;38.71;101022.94;5054714;28;45576;-71
2022/04/05 11:41:58;;;;;;;;;4.33;3.00;;;;;23.21;38.79;101025.78;5053070;28;45379;-71
2022/04/05 11:44:24;;;;;;;;;4.00;4.00;;;;;23.20;38.37;101023.25;5047415;28;45585;-72
2022/04/05 11:46:54;;;;;;;;;3.00;3.00;;;;;23.20;38.56;101021.41;5047887;27;45617;-73
2022/04/05 11:49:20;;;;;;;;;3.00;3.00;;;;;23.19;38.43;101024.25;5043515;28;45744;-73
2022/04/05 11:51:51;;;;;;;;;4.33;3.00;;;;;23.19;38.59;101022.41;5055857;28;51924;-72
2022/04/05 11:54:24;;;;;;;;;4.00;2.67;;;;;23.19;38.51;101025.13;5046849;28;46291;-72
2022/04/05 11:56:51;;;;;;;;;3.67;3.00;;;;;23.21;38.87;101019.53;5058759;27;46356;-73
2022/04/05 11:59:24;;;;;;;;;2.33;2.33;;;;;23.24;38.54;101027.34;5053878;28;45505;-71
2022/04/05 12:01:50;;;;;;;;;3.00;2.33;;;;;23.27;38.63;101021.59;5054275;28;45676;-73
2022/04/05 12:04:20;;;;;;;;;4.33;2.00;;;;;23.28;38.70;101013.31;5048520;28;46174;-71
2022/04/05 12:06:47;;;;;;;;;2.67;2.67;;;;;23.27;38.11;101018.91;5046387;28;45424;-71
2022/04/05 12:09:16;;;;;;;;;5.00;4.33;;;;;23.24;38.29;101019.22;5050032;28;48366;-73
2022/04/05 12:11:45;;;;;;;;;4.00;3.00;;;;;23.21;38.43;101020.38;5045248;28;45526;-72
2022/04/05 12:14:13;;;;;;;;;5.00;3.33;;;;;23.22;38.35;101021.25;5051037;28;46412;-71
2022/04/05 12:16:45;;;;;;;;;4.00;3.00;;;;;23.23;38.39;101018.38;5043046;28;45446;-71
2022/04/05 12:19:11;;;;;;;;;2.33;2.33;;;;;23.20;38.15;101015.97;5043843;28;45486;-75
2022/04/05 12:21:36;;;;;;;;;4.00;4.00;;;;;23.21;38.57;101016.84;5049682;28;45478;-72
2022/04/05 12:24:01;;;;;;;;;3.00;3.00;;;;;23.23;38.47;101012.09;5038735;28;46128;-71
2022/04/05 12:26:31;;;;;;;;;5.00;3.33;;;;;23.25;38.34;101007.34;5069011;28;45541;-73
2022/04/05 12:28:59;;;;;;;;;3.33;3.33;;;;;23.29;38.53;101004.19;5058218;27;45643;-73
2022/04/05 12:31:28;;;;;;;;;5.67;4.00;;;;;23.34;38.54;100998.31;5054818;28;45396;-73
2022/04/05 12:34:11;;;;;;;;;4.00;4.00;;;;;23.34;38.73;100995.59;5055494;28;46255;-73
2022/04/05 12:36:54;;;;;;;;;2.00;2.00;;;;;23.38;38.74;101002.41;5067457;28;45528;-73
2022/04/05 12:39:22;;;;;;;;;3.33;3.00;;;;;23.42;39.04;101003.78;5057338;28;45389;-73
2022/04/05 12:41:57;;;;;;;;;4.00;2.67;;;;;23.46;38.86;100998.88;5069915;28;45427;-73
2022/04/05 12:44:26;;;;;;;;;1.00;1.00;;;;;23.45;38.92;100997.19;5054283;28;47243;-73
2022/04/05 12:46:55;;;;;;;;;2.33;2.33;;;;;23.49;38.96;100993.13;5053225;28;45469;-73
2022/04/05 12:49:24;;;;;;;;;2.33;2.33;;;;;23.52;38.68;101005.50;5053011;28;45539;-75
2022/04/05 12:51:51;;;;;;;;;3.00;3.00;;;;;23.54;39.32;101009.75;5054450;28;45564;-72
2022/04/05 12:54:32;;;;;;;;;2.67;2.00;;;;;23.57;39.38;100997.75;5044244;28;45330;-73
2022/04/05 12:57:24;;;;;;;;;2.33;2.33;;;;;23.58;39.01;100999.44;5063042;28;52601;-72
2022/04/05 12:59:54;;;;;;;;;4.00;4.00;;;;;23.59;39.60;100997.59;5047519;28;45545;-73
2022/04/05 13:02:22;;;;;;;;;3.33;3.33;;;;;23.61;39.20;100992.84;5044544;28;45403;-74
2022/04/05 13:04:48;;;;;;;;;1.00;1.00;;;;;23.63;39.19;100988.13;5058063;27;46010;-74
2022/04/05 13:07:15;;;;;;;;;3.00;3.00;;;;;23.65;39.23;100995.06;5051981;28;45486;-73
2022/04/05 13:09:41;;;;;;;;;2.00;2.00;;;;;23.67;39.56;100998.47;5043997;28;45513;-75
2022/04/05 13:12:13;;;;;;;;;2.67;1.67;;;;;23.71;39.46;100987.31;5051562;27;45478;-74
2022/04/05 13:14:39;;;;;;;;;2.33;2.33;;;;;23.72;39.33;100989.84;5058811;28;45670;-73
2022/04/05 13:17:06;;;;;;;;;5.00;3.00;;;;;23.72;39.04;100987.16;5060534;28;45451;-72
2022/04/05 13:19:32;;;;;;;;;3.33;2.00;;;;;23.69;39.30;100974.78;5053479;28;45525;-73
2022/04/05 13:21:59;;;;;;;;;1.00;1.00;;;;;23.78;39.52;100985.63;5061078;28;45822;-74
2022/04/05 13:24:38;;;;;;;;;3.00;3.00;;;;;23.79;39.77;100985.47;5043738;28;46100;-73
2022/04/05 13:27:04;;;;;;;;;4.00;2.33;;;;;23.80;39.51;100989.84;5060948;28;45401;-75
2022/04/05 13:29:30;;;;;;;;;3.00;3.00;;;;;23.81;39.83;100979.88;5040874;28;45411;-73
2022/04/05 13:32:01;;;;;;;;;3.00;3.00;;;;;23.81;38.62;100975.31;5054689;28;46970;-74
2022/04/05 13:34:33;;;;;;;;;3.67;2.00;;;;;23.81;38.24;100977.16;5048342;27;45467;-74
2022/04/05 13:36:58;;;;;;;;;2.67;2.67;;;;;23.77;38.32;100973.09;5046164;28;45677;-72
2022/04/05 13:39:27;;;;;;;;;4.33;4.33;;;;;23.73;38.45;100964.44;5048411;28;45364;-72
2022/04/05 13:41:53;;;;;;;;;5.33;4.00;;;;;23.73;38.59;100966.28;5052379;28;45490;-72
2022/04/05 13:44:19;;;;;;;;;2.00;2.00;;;;;23.73;38.56;100963.59;5047993;28;47081;-72
2022/04/05 13:46:45;;;;;;;;;4.00;4.00;;;;;23.73;38.71;100963.59;5055834;28;45593;-73
2022/04/05 13:49:16;;;;;;;;;2.00;2.00;;;;;23.74;38.94;100955.28;5051580;28;45498;-73
2022/04/05 13:51:44;;;;;;;;;3.33;3.33;;;;;23.76;39.04;100956.00;5053545;28;45372;-72
2022/04/05 13:54:11;;;;;;;;;4.00;2.00;;;;;23.79;38.90;100949.41;5055614;28;45674;-72
2022/04/05 13:56:37;;;;;;;;;4.67;4.00;;;;;23.81;38.69;100952.78;5061062;28;45455;-72
2022/04/05 13:59:04;;;;;;;;;4.33;3.67;;;;;23.80;38.70;100943.78;5044744;27;45469;-73
2022/04/05 14:01:29;;;;;;;;;2.00;2.00;;;;;23.80;39.03;100946.50;5042787;28;45542;-73
2022/04/05 14:03:55;;;;;;;;;3.67;2.67;;;;;23.82;39.42;100943.63;5049457;28;46026;-73
2022/04/05 14:06:20;;;;;;;;;4.00;3.00;;;;;23.81;39.19;100936.50;5049899;28;45493;-73
2022/04/05 14:08:46;;;;;;;;;1.67;1.67;;;;;23.86;39.10;100934.16;5055362;28;45525;-71
2022/04/05 14:11:12;;;;;;;;;3.00;3.00;;;;;23.88;39.19;100934.84;5049306;27;45484;-72
2022/04/05 14:13:38;;;;;;;;;2.00;2.00;;;;;23.93;39.28;100935.19;5048781;28;46277;-72
2022/04/05 14:16:04;;;;;;;;;3.00;2.67;;;;;23.96;39.49;100939.44;5054819;28;45367;-71
2022/04/05 14:18:29;;;;;;;;;3.00;3.00;;;;;23.95;39.46;100924.19;5053218;28;45514;-72
2022/04/05 14:20:55;;;;;;;;;1.33;1.33;;;;;24.00;39.30;100929.09;5051789;28;45459;-72
2022/04/05 14:23:20;;;;;;;;;1.33;1.33;;;;;24.02;39.34;100921.63;5048828;28;45651;-72
2022/04/05 14:25:46;;;;;;;;;1.00;1.00;;;;;24.02;39.55;100925.22;5047128;27;47255;-72
2022/04/05 14:28:11;;;;;;;;;1.67;1.00;;;;;24.04;39.23;100917.75;5046532;28;45644;-72
2022/04/05 14:30:37;;;;;;;;;1.67;1.67;;;;;24.04;39.37;100906.91;5048600;28;45581;-74
2022/04/05 14:33:02;;;;;;;;;1.00;1.00;;;;;24.05;39.39;100908.63;5050179;28;45517;-73
2022/04/05 14:35:28;;;;;;;;;4.00;2.67;;;;;24.08;38.94;100905.53;5052191;28;45776;-73
2022/04/05 14:37:53;;;;;;;;;3.67;2.67;;;;;24.06;38.55;100899.47;5051526;28;45509;-72
2022/04/05 14:40:19;;;;;;;;;0.00;0.00;;;;;24.10;38.53;100896.44;5050067;28;45407;-71
2022/04/05 14:42:44;;;;;;;;;1.33;1.33;;;;;24.10;38.65;100896.44;5051099;28;47030;-72
2022/04/05 14:45:10;;;;;;;;;3.00;3.00;;;;;24.12;38.76;100897.13;5049813;28;45603;-72
2022/04/05 14:47:35;;;;;;;;;2.00;2.00;;;;;24.15;38.92;100902.22;5053960;28;45502;-71
2022/04/05 14:50:03;;;;;;;;;2.33;2.33;;;;;24.16;39.14;100893.88;5051703;28;45453;-70
2022/04/05 14:52:29;;;;;;;;;2.00;1.00;;;;;24.18;38.90;100886.44;5047269;27;47689;-71
2022/04/05 14:54:55;;;;;;;;;4.00;2.00;;;;;24.24;39.03;100892.19;5050825;28;46011;-71
2022/04/05 14:57:20;;;;;;;;;1.00;1.00;;;;;24.23;39.19;100888.63;5055736;28;45553;-71
2022/04/05 14:59:45;;;;;;;;;2.67;2.00;;;;;24.26;38.95;100882.88;5054818;28;46694;-70
2022/04/05 15:02:11;;;;;;;;;3.00;2.00;;;;;24.27;38.95;100878.31;5053498;28;45454;-73
2022/04/05 15:04:36;;;;;;;;;3.33;2.67;;;;;24.30;38.98;100876.09;5061941;27;45562;-72
2022/04/05 15:07:06;;;;;;;;;1.00;1.00;;;;;24.32;38.99;100886.78;5054195;28;45462;-70
2022/04/05 15:09:31;;;;;;;;;3.00;2.00;;;;;24.34;39.25;100880.16;5051969;28;45619;-70
2022/04/05 15:11:57;;;;;;;;;1.67;1.67;;;;;24.35;39.25;100875.56;5053643;28;45538;-71
2022/04/05 15:14:22;;;;;;;;;1.00;1.00;;;;;24.36;39.16;100868.28;5056302;27;45461;-70
2022/04/05 15:16:49;;;;;;;;;1.00;1.00;;;;;24.38;39.42;100872.53;5056670;28;45723;-70
2022/04/05 15:19:15;;;;;;;;;2.33;2.00;;;;;24.37;39.32;100869.97;5052449;28;45400;-72
2022/04/05 15:21:40;;;;;;;;;1.33;1.33;;;;;24.38;39.23;100869.81;5054446;28;45999;-73
2022/04/05 15:24:06;;;;;;;;;1.00;1.00;;;;;24.38;39.44;100867.09;5055801;28;46767;-73
2022/04/05 15:26:31;;;;;;;;;1.67;1.67;;;;;24.40;39.42;100867.78;5050864;28;45459;-72
2022/04/05 15:28:56;;;;;;;;;1.00;1.00;;;;;24.40;39.38;100859.63;5053313;28;45523;-72
2022/04/05 15:31:22;;;;;;;;;2.00;2.00;;;;;24.39;39.39;100870.69;5052498;28;45407;-72
2022/04/05 15:33:47;;;;;;;;;2.00;2.00;;;;;24.38;39.47;100860.81;5053733;28;45507;-70
2022/04/05 15:36:12;;;;;;;;;2.00;2.00;;;;;24.40;39.57;100861.50;5052424;28;45490;-70
2022/04/05 15:38:38;;;;;;;;;1.33;1.33;;;;;24.40;39.46;100853.38;5055500;28;45497;-70
2022/04/05 15:41:03;;;;;;;;;3.00;1.67;;;;;24.38;39.42;100850.81;5054466;28;57015;-70
2022/04/05 15:43:28;;;;;;;;;3.00;1.67;;;;;24.41;39.49;100852.34;5052937;28;45386;-71
2022/04/05 15:45:54;;;;;;;;;3.00;3.00;;;;;24.41;39.64;100850.50;5054126;28;45517;-74
2022/04/05 15:48:20;;;;;;;;;1.33;1.33;;;;;24.41;39.59;100852.34;5056312;28;45826;-72
2022/04/05 15:50:48;;;;;;;;;4.00;4.00;;;;;24.41;39.21;100850.50;5057577;28;46190;-72
2022/04/05 15:53:14;;;;;;;;;4.00;2.33;;;;;24.38;38.51;100853.53;5053653;28;45783;-71
2022/04/05 15:55:39;;;;;;;;;3.33;3.00;;;;;24.30;37.94;100853.53;5049955;28;47847;-71
2022/04/05 15:58:05;;;;;;;;;2.00;2.00;;;;;24.20;37.88;100846.44;5048344;28;45802;-72
2022/04/05 16:00:30;;;;;;;;;5.00;3.00;;;;;24.15;37.91;100845.28;5050650;28;46708;-71
2022/04/05 16:02:56;;;;;;;;;4.00;2.33;;;;;23.98;37.81;100828.13;5053356;28;45561;-72
2022/04/05 16:05:21;;;;;;;;;2.33;2.00;;;;;24.05;38.19;100843.53;5051271;28;45490;-71
2022/04/05 16:07:47;;;;;;;;;2.33;2.33;;;;;24.01;37.86;100844.91;5048438;28;45454;-71
2022/04/05 16:10:12;;;;;;;;;5.33;4.00;;;;;23.96;37.90;100844.56;5051552;28;51679;-71
2022/04/05 16:12:38;;;;;;;;;1.67;1.67;;;;;23.91;37.85;100842.34;5052259;28;45547;-71
2022/04/05 16:15:05;;;;;;;;;4.00;3.00;;;;;23.82;37.92;100836.06;5052982;28;45772;-70
2022/04/05 16:17:30;;;;;;;;;2.00;2.00;;;;;23.85;37.88;100844.88;5053278;28;45472;-71
2022/04/05 16:19:55;;;;;;;;;4.33;4.00;;;;;23.80;37.61;100843.50;5052429;28;46372;-72
2022/04/05 16:22:22;;;;;;;;;5.67;3.33;;;;;23.79;37.63;100843.69;5048780;28;61714;-71
2022/04/05 16:24:47;;;;;;;;;3.00;3.00;;;;;23.77;37.89;100830.31;5049336;28;45715;-71
2022/04/05 16:27:13;;;;;;;;;3.33;3.00;;;;;23.78;37.63;100836.56;5053525;28;45408;-71
2022/04/05 16:29:39;;;;;;;;;4.00;3.00;;;;;23.77;37.94;100834.88;5052525;28;46194;-71
2022/04/05 16:32:05;;;;;;;;;3.00;3.00;;;;;23.73;37.69;100833.50;5052099;28;45337;-72
2022/04/05 16:34:30;;;;;;;;;3.33;3.33;;;;;23.69;37.80;100836.56;5055818;28;45550;-72
2022/04/05 16:36:55;;;;;;;;;3.00;3.00;;;;;23.66;37.90;100833.34;5054145;28;45718;-72
2022/04/05 16:39:22;;;;;;;;;1.67;1.67;;;;;23.64;37.86;100835.38;5053076;28;46075;-72
2022/04/05 16:41:48;;;;;;;;;6.00;3.67;;;;;23.62;38.18;100832.81;5065079;28;45352;-72
2022/04/05 16:44:14;;;;;;;;;5.00;5.00;;;;;23.63;38.19;100828.25;5051282;28;45736;-72
2022/04/05 16:46:40;;;;;;;;;3.00;3.00;;;;;23.63;37.63;100839.94;5047511;28;45515;-72
2022/04/05 16:49:06;;;;;;;;;3.00;2.00;;;;;23.62;37.72;100835.53;5047262;28;47426;-71
2022/04/05 16:51:32;;;;;;;;;4.33;4.33;;;;;23.60;37.93;100825.88;5047062;28;46708;-71
2022/04/05 16:53:58;;;;;;;;;2.00;2.00;;;;;23.56;37.47;100825.38;5058851;27;45455;-71
2022/04/05 16:56:24;;;;;;;;;4.00;4.00;;;;;23.54;37.94;100824.72;5043117;28;45720;-72
2022/04/05 16:58:50;;;;;;;;;5.67;3.67;;;;;23.54;37.66;100819.28;5049104;28;45532;-72
2022/04/05 17:01:16;;;;;;;;;6.00;3.00;;;;;23.49;37.98;100811.66;5048057;28;45690;-72
2022/04/05 17:03:42;;;;;;;;;4.67;2.67;;;;;23.48;38.20;100817.22;5048482;28;45565;-71
2022/04/05 17:06:13;;;;;;;;;5.67;4.00;;;;;23.45;37.87;100823.00;5048348;28;45698;-72
2022/04/05 17:08:42;;;;;;;;;4.00;3.00;;;;;23.44;38.04;100814.00;5042613;28;46040;-72
2022/04/05 17:11:12;;;;;;;;;4.00;3.00;;;;;23.43;37.94;100815.84;5046328;28;45477;-72
2022/04/05 17:13:38;;;;;;;;;3.33;3.33;;;;;23.42;38.18;100825.00;5047154;28;46774;-71
2022/04/05 17:16:04;;;;;;;;;5.00;5.00;;;;;23.43;37.89;100818.56;5046368;28;45512;-71
2022/04/05 17:18:30;;;;;;;;;2.33;2.33;;;;;23.41;37.93;100817.91;5046784;28;45728;-72
2022/04/05 17:20:55;;;;;;;;;3.00;3.00;;;;;23.39;37.67;100814.53;5049076;28;46375;-72
2022/04/05 17:23:21;;;;;;;;;4.33;2.67;;;;;23.39;37.69;100822.66;5048374;28;45446;-71
2022/04/05 17:25:48;;;;;;;;;4.00;4.00;;;;;23.39;38.05;100816.38;5073713;27;45835;-72
2022/04/05 17:28:14;;;;;;;;;2.33;2.33;;;;;23.37;38.24;100818.38;5045403;28;47087;-71
2022/04/05 17:30:39;;;;;;;;;4.33;4.00;;;;;23.34;38.01;100819.56;5047794;28;45508;-72
2022/04/05 17:33:05;;;;;;;;;6.00;6.00;;;;;23.35;38.47;100821.28;5052671;28;45802;-72
2022/04/05 17:35:31;;;;;;;;;8.00;6.67;;;;;23.35;38.23;100818.56;5086580;27;45461;-72
2022/04/05 17:37:56;;;;;;;;;6.33;4.67;;;;;23.36;38.47;100812.13;5051411;28;45359;-73
2022/04/05 17:40:25;;;;;;;;;4.00;4.00;;;;;23.39;38.29;100824.50;5051017;28;45468;-73
2022/04/05 17:42:51;;;;;;;;;5.33;4.33;;;;;23.47;38.46;100823.66;5050756;28;45593;-74
2022/04/05 17:45:16;;;;;;;;;6.67;4.67;;;;;23.49;38.18;100817.06;5052537;28;45597;-73
2022/04/05 17:47:42;;;;;;;;;7.00;3.00;;;;;23.50;38.53;100821.47;5052638;28;45931;-74
2022/04/05 17:50:07;;;;;;;;;5.00;4.00;;;;;23.55;38.37;100819.09;5050230;28;45470;-75
2022/04/05 17:52:33;;;;;;;;;4.67;4.00;;;;;23.58;38.52;100820.63;5047157;28;45824;-73